createdAt,value
2022-11-16T00:01:42.746Z,99245.19
2022-11-16T00:04:12.535Z,99243.03
2022-11-16T00:06:40.975Z,99240.63
2022-11-16T00:09:24.200Z,99235.03
2022-11-16T00:11:53.205Z,99240.19
2022-11-16T00:14:22.094Z,99240.50
2022-11-16T00:16:50.369Z,99247.09
2022-11-16T00:19:18.683Z,99244.81
2022-11-16T00:21:46.791Z,99242.53
2022-11-16T00:24:20.783Z,99245.16
2022-11-16T00:26:50.293Z,99236.34
2022-11-16T00:29:20.356Z,99241.72
2022-11-16T00:31:48.973Z,99226.78
2022-11-16T00:34:17.263Z,99236.19
2022-11-16T00:36:45.230Z,99225.81
2022-11-16T00:39:13.710Z,99228.47
2022-11-16T00:41:43.526Z,99222.47
2022-11-16T00:44:13.341Z,99223.22
2022-11-16T00:46:41.166Z,99218.50
2022-11-16T00:49:09.668Z,99222.81
2022-11-16T00:51:38.459Z,99214.88
2022-11-16T00:54:07.679Z,99216.72
2022-11-16T00:56:35.514Z,99210.94
2022-11-16T00:59:04.735Z,99215.06
2022-11-16T01:01:32.372Z,99205.25
2022-11-16T01:04:00.079Z,99208.72
2022-11-16T01:06:27.730Z,99211.75
2022-11-16T01:08:55.397Z,99211.53
2022-11-16T01:11:40.791Z,99205.19
2022-11-16T01:14:10.795Z,99216.66
2022-11-16T01:16:38.456Z,99200.06
2022-11-16T01:19:06.640Z,99196.59
2022-11-16T01:21:35.202Z,99195.19
2022-11-16T01:24:03.182Z,99195.38
2022-11-16T01:26:30.902Z,99190.13
2022-11-16T01:28:59.564Z,99192.97
2022-11-16T01:31:28.519Z,99191.28
2022-11-16T01:33:56.303Z,99195.94
2022-11-16T01:36:24.089Z,99197.78
2022-11-16T01:38:51.822Z,99205.63
2022-11-16T01:41:21.463Z,99196.63
2022-11-16T01:43:59.312Z,99195.44
2022-11-16T01:46:31.629Z,99200.13
2022-11-16T01:49:04.264Z,99188.47
2022-11-16T01:51:32.945Z,99192.97
2022-11-16T01:54:03.560Z,99189.09
2022-11-16T01:56:33.091Z,99189.09
2022-11-16T01:59:00.841Z,99186.81
2022-11-16T02:01:29.845Z,99188.03
2022-11-16T02:03:57.624Z,99178.41
2022-11-16T02:06:33.677Z,99183.94
2022-11-16T02:09:34.914Z,99180.00
2022-11-16T02:12:13.931Z,99181.81
2022-11-16T02:14:56.789Z,99174.69
2022-11-16T02:17:33.836Z,99167.53
2022-11-16T02:20:34.492Z,99170.38
2022-11-16T02:23:22.521Z,99178.56
2022-11-16T02:26:01.043Z,99179.38
2022-11-16T02:28:41.605Z,99177.56
2022-11-16T02:31:16.394Z,99174.31
2022-11-16T02:33:50.024Z,99176.97
2022-11-16T02:36:23.373Z,99192.28
2022-11-16T02:38:55.940Z,99181.31
2022-11-16T02:41:26.204Z,99185.03
2022-11-16T02:44:00.992Z,99191.94
2022-11-16T02:46:37.190Z,99187.41
2022-11-16T02:49:10.361Z,99186.78
2022-11-16T02:51:39.981Z,99187.16
2022-11-16T02:54:12.703Z,99187.41
2022-11-16T02:56:47.376Z,99172.84
2022-11-16T02:59:17.623Z,99179.38
2022-11-16T03:01:52.275Z,99172.47
2022-11-16T03:04:26.386Z,99175.44
2022-11-16T03:06:57.645Z,99170.78
2022-11-16T03:09:29.750Z,99157.47
2022-11-16T03:12:00.095Z,99157.22
2022-11-16T03:14:34.115Z,99153.16
2022-11-16T03:17:05.123Z,99154.19
2022-11-16T03:19:37.165Z,99151.56
2022-11-16T03:22:11.531Z,99145.81
2022-11-16T03:24:39.900Z,99148.03
2022-11-16T03:27:14.363Z,99151.91
2022-11-16T03:29:47.991Z,99167.47
2022-11-16T03:32:21.692Z,99171.16
2022-11-16T03:34:57.741Z,99176.47
2022-11-16T03:37:26.829Z,99178.47
2022-11-16T03:39:55.813Z,99182.59
2022-11-16T03:42:24.912Z,99192.19
2022-11-16T03:44:53.397Z,99189.53
2022-11-16T03:47:22.597Z,99176.03
2022-11-16T03:49:50.214Z,99179.94
2022-11-16T03:52:19.133Z,99199.75
2022-11-16T03:54:46.745Z,99196.72
2022-11-16T03:57:17.993Z,99192.41
2022-11-16T03:59:46.235Z,99183.81
2022-11-16T04:02:14.161Z,99202.19
2022-11-16T04:05:01.218Z,99202.00
2022-11-16T04:07:46.204Z,99195.59
2022-11-16T04:10:31.578Z,99186.41
2022-11-16T04:13:17.292Z,99209.53
2022-11-16T04:16:02.641Z,99194.84
2022-11-16T04:18:47.892Z,99207.75
2022-11-16T04:21:39.914Z,99215.09
2022-11-16T04:24:14.075Z,99205.47
2022-11-16T04:27:01.638Z,99204.72
2022-11-16T04:29:29.896Z,99197.50
2022-11-16T04:32:15.313Z,99213.47
2022-11-16T04:35:00.715Z,99208.50
2022-11-16T04:37:47.367Z,99209.16
2022-11-16T04:40:16.317Z,99212.81
2022-11-16T04:42:44.449Z,99220.16
2022-11-16T04:45:29.692Z,99224.69
2022-11-16T04:47:57.353Z,99221.81
2022-11-16T04:50:25.031Z,99225.88
2022-11-16T04:52:54.044Z,99223.59
2022-11-16T04:55:21.668Z,99227.91
2022-11-16T04:57:49.375Z,99219.34
2022-11-16T05:00:18.118Z,99218.69
2022-11-16T05:02:46.297Z,99217.25
2022-11-16T05:05:14.434Z,99218.31
2022-11-16T05:07:42.297Z,99215.47
2022-11-16T05:10:12.360Z,99206.44
2022-11-16T05:12:40.192Z,99212.69
2022-11-16T05:15:08.841Z,99211.50
2022-11-16T05:17:36.744Z,99217.38
2022-11-16T05:20:22.630Z,99214.72
2022-11-16T05:22:54.600Z,99213.44
2022-11-16T05:25:23.672Z,99209.97
2022-11-16T05:27:51.326Z,99216.81
2022-11-16T05:30:19.383Z,99216.38
2022-11-16T05:32:47.458Z,99214.72
2022-11-16T05:35:15.124Z,99220.88
2022-11-16T05:37:42.688Z,99225.38
2022-11-16T05:40:11.813Z,99227.63
2022-11-16T05:42:40.765Z,99236.00
2022-11-16T05:45:09.073Z,99234.34
2022-11-16T05:47:36.707Z,99236.81
2022-11-16T05:50:04.664Z,99229.28
2022-11-16T05:52:32.321Z,99237.66
2022-11-16T05:54:59.973Z,99235.59
2022-11-16T05:57:27.540Z,99247.88
2022-11-16T05:59:56.500Z,99244.22
2022-11-16T06:02:24.190Z,99248.88
2022-11-16T06:04:51.848Z,99254.59
2022-11-16T06:07:19.518Z,99247.63
2022-11-16T06:09:47.204Z,99241.94
2022-11-16T06:12:14.810Z,99233.16
2022-11-16T06:14:42.397Z,99240.03
2022-11-16T06:17:14.451Z,99238.00
2022-11-16T06:19:42.455Z,99241.03
2022-11-16T06:22:10.089Z,99248.00
2022-11-16T06:24:37.965Z,99249.66
2022-11-16T06:27:05.563Z,99247.19
2022-11-16T06:29:33.201Z,99243.34
2022-11-16T06:32:00.937Z,99252.94
2022-11-16T06:34:29.973Z,99258.63
2022-11-16T06:36:57.633Z,99259.91
2022-11-16T06:39:25.612Z,99262.75
2022-11-16T06:41:53.224Z,99270.78
2022-11-16T06:44:20.826Z,99269.53
2022-11-16T06:46:48.515Z,99272.94
2022-11-16T06:49:16.162Z,99271.56
2022-11-16T06:51:45.328Z,99274.22
2022-11-16T06:54:12.988Z,99276.69
2022-11-16T06:56:40.604Z,99286.31
2022-11-16T06:59:08.253Z,99281.38
2022-11-16T07:01:36.004Z,99299.97
2022-11-16T07:04:03.717Z,99298.97
2022-11-16T07:06:31.554Z,99302.88
2022-11-16T07:09:00.509Z,99300.03
2022-11-16T07:11:28.124Z,99307.38
2022-11-16T07:13:55.736Z,99306.19
2022-11-16T07:16:23.350Z,99306.88
2022-11-16T07:18:50.984Z,99298.38
2022-11-16T07:21:18.831Z,99295.50
2022-11-16T07:23:46.740Z,99294.06
2022-11-16T07:26:15.724Z,99304.81
2022-11-16T07:28:47.974Z,99310.25
2022-11-16T07:31:16.553Z,99302.19
2022-11-16T07:33:44.196Z,99306.59
2022-11-16T07:36:14.004Z,99315.53
2022-11-16T07:38:41.694Z,99312.59
2022-11-16T07:41:11.598Z,99306.44
2022-11-16T07:43:40.819Z,99322.53
2022-11-16T07:48:59.127Z,99327.75
2022-11-16T07:51:26.796Z,99328.31
2022-11-16T07:53:56.194Z,99330.13
2022-11-16T07:56:24.095Z,99341.97
2022-11-16T07:58:53.158Z,99341.97
2022-11-16T08:01:20.941Z,99345.16
2022-11-16T08:03:48.580Z,99357.72
2022-11-16T08:06:20.241Z,99357.75
2022-11-16T08:08:47.850Z,99354.91
2022-11-16T08:11:15.439Z,99349.59
2022-11-16T08:13:43.847Z,99352.91
2022-11-16T08:16:14.591Z,99356.94
2022-11-16T08:18:43.043Z,99348.91
2022-11-16T08:21:13.804Z,99352.13
2022-11-16T08:23:41.934Z,99355.22
2022-11-16T08:26:14.238Z,99355.09
2022-11-16T08:28:42.998Z,99362.50
2022-11-16T08:31:13.700Z,99371.78
2022-11-16T08:33:41.431Z,99375.34
2022-11-16T08:36:14.292Z,99378.50
2022-11-16T08:38:42.289Z,99373.53
2022-11-16T08:41:09.988Z,99377.78
2022-11-16T08:43:39.440Z,99371.56
2022-11-16T08:46:07.539Z,99370.56
2022-11-16T08:48:37.645Z,99365.88
2022-11-16T08:51:21.762Z,99371.25
2022-11-16T08:53:49.753Z,99371.91
2022-11-16T08:56:18.875Z,99384.84
2022-11-16T08:58:47.232Z,99381.47
2022-11-16T09:01:17.087Z,99378.00
2022-11-16T09:03:47.132Z,99381.88
2022-11-16T09:06:15.202Z,99381.59
2022-11-16T09:08:44.765Z,99377.31
2022-11-16T09:11:15.583Z,99376.94
2022-11-16T09:13:43.436Z,99376.06
2022-11-16T09:16:11.473Z,99373.25
2022-11-16T09:18:39.093Z,99373.81
2022-11-16T09:21:08.157Z,99373.66
2022-11-16T09:23:35.800Z,99369.44
2022-11-16T09:26:04.269Z,99376.91
2022-11-16T09:28:32.583Z,99373.47
2022-11-16T09:31:02.762Z,99374.69
2022-11-16T09:33:31.427Z,99378.19
2022-11-16T09:36:02.594Z,99394.88
2022-11-16T09:38:47.485Z,99395.03
2022-11-16T09:41:43.207Z,99403.06
2022-11-16T09:44:25.487Z,99392.53
2022-11-16T09:46:57.391Z,99395.81
2022-11-16T09:49:28.167Z,99399.44
2022-11-16T09:52:00.639Z,99397.41
2022-11-16T09:54:38.058Z,99403.81
2022-11-16T09:57:12.740Z,99396.19
2022-11-16T09:59:45.568Z,99389.19
2022-11-16T10:02:31.249Z,99391.63
2022-11-16T10:05:04.396Z,99386.03
2022-11-16T10:07:41.824Z,99395.22
2022-11-16T10:10:13.962Z,99402.94
2022-11-16T10:12:46.699Z,99400.41
2022-11-16T10:15:30.516Z,99396.28
2022-11-16T10:18:11.587Z,99386.03
2022-11-16T10:20:55.007Z,99392.41
2022-11-16T10:23:31.786Z,99383.66
2022-11-16T10:26:12.981Z,99378.38
2022-11-16T10:29:02.143Z,99371.47
2022-11-16T10:31:44.319Z,99370.25
2022-11-16T10:34:21.077Z,99370.47
2022-11-16T10:36:48.683Z,99367.84
2022-11-16T10:39:18.952Z,99371.59
2022-11-16T10:41:50.298Z,99353.56
2022-11-16T10:44:22.705Z,99355.34
2022-11-16T10:47:01.598Z,99352.88
2022-11-16T10:49:37.027Z,99347.59
2022-11-16T10:52:04.850Z,99337.88
2022-11-16T10:54:32.471Z,99338.22
2022-11-16T10:57:05.696Z,99340.94
2022-11-16T10:59:43.058Z,99334.25
2022-11-16T11:02:34.621Z,99334.56
2022-11-16T11:05:05.685Z,99334.34
2022-11-16T11:07:35.272Z,99333.88
2022-11-16T11:10:03.453Z,99341.53
2022-11-16T11:12:41.190Z,99328.00
2022-11-16T11:15:26.246Z,99330.97
2022-11-16T11:18:13.884Z,99321.66
2022-11-16T11:20:45.110Z,99327.56
2022-11-16T11:23:16.803Z,99324.31
2022-11-16T11:25:52.387Z,99333.59
2022-11-16T11:28:25.038Z,99335.44
2022-11-16T11:31:00.115Z,99330.72
2022-11-16T11:33:32.243Z,99330.72
2022-11-16T11:36:03.920Z,99327.41
2022-11-16T11:38:32.226Z,99324.53
2022-11-16T11:41:01.501Z,99315.69
2022-11-16T11:43:30.868Z,99323.50
2022-11-16T11:46:07.118Z,99323.72
2022-11-16T11:48:42.256Z,99327.63
2022-11-16T11:51:19.038Z,99316.97
2022-11-16T11:53:54.371Z,99316.94
2022-11-16T11:56:22.203Z,99320.66
2022-11-16T11:58:51.963Z,99313.22
2022-11-16T12:01:48.657Z,99305.41
2022-11-16T12:04:42.818Z,99302.13
2022-11-16T12:07:21.807Z,99304.56
2022-11-16T12:09:58.161Z,99297.00
2022-11-16T12:12:36.408Z,99286.16
2022-11-16T12:15:26.994Z,99291.06
2022-11-16T12:18:05.562Z,99278.31
2022-11-16T12:20:43.672Z,99286.94
2022-11-16T12:23:51.270Z,99282.84
2022-11-16T12:26:26.163Z,99286.13
2022-11-16T12:29:04.999Z,99280.78
2022-11-16T12:31:53.956Z,99278.75
2022-11-16T12:34:33.942Z,99273.81
2022-11-16T12:37:09.416Z,99273.53
2022-11-16T12:39:44.118Z,99267.59
2022-11-16T12:42:26.690Z,99271.28
2022-11-16T12:45:19.036Z,99267.59
2022-11-16T12:48:04.633Z,99260.63
2022-11-16T12:50:45.550Z,99258.16
2022-11-16T12:53:34.618Z,99251.78
2022-11-16T12:56:10.533Z,99242.94
2022-11-16T12:58:54.188Z,99236.72
2022-11-16T13:01:26.149Z,99245.63
2022-11-16T13:04:00.944Z,99238.00
2022-11-16T13:06:33.100Z,99236.16
2022-11-16T13:09:07.745Z,99239.22
2022-11-16T13:11:39.223Z,99231.44
2022-11-16T13:14:12.662Z,99237.59
2022-11-16T13:16:40.714Z,99227.28
2022-11-16T13:19:14.348Z,99222.75
2022-11-16T13:21:50.793Z,99216.91
2022-11-16T13:24:33.544Z,99219.06
2022-11-16T13:27:14.344Z,99218.59
2022-11-16T13:29:46.938Z,99207.09
2022-11-16T13:32:20.648Z,99208.78
2022-11-16T13:34:51.145Z,99202.88
2022-11-16T13:37:47.214Z,99198.34
2022-11-16T13:40:24.458Z,99195.28
2022-11-16T13:43:08.293Z,99211.13
2022-11-16T13:45:41.792Z,99198.19
2022-11-16T13:48:18.731Z,99213.41
2022-11-16T13:50:54.104Z,99206.25
2022-11-16T13:54:25.065Z,99198.25
2022-11-16T13:56:24.190Z,99199.28
2022-11-16T13:58:56.338Z,99195.34
2022-11-16T14:01:24.439Z,99185.91
2022-11-16T14:03:53.471Z,99183.25
2022-11-16T14:07:00.755Z,99178.97
2022-11-16T14:09:52.574Z,99181.22
2022-11-16T14:12:59.489Z,99181.63
2022-11-16T14:15:33.328Z,99164.59
2022-11-16T14:18:23.812Z,99175.91
2022-11-16T14:20:57.586Z,99166.69
2022-11-16T14:23:35.937Z,99167.50
2022-11-16T14:26:18.800Z,99164.41
2022-11-16T14:28:59.781Z,99169.94
2022-11-16T14:31:30.493Z,99163.81
2022-11-16T14:34:02.484Z,99167.88
2022-11-16T14:36:40.945Z,99164.19
2022-11-16T14:39:30.686Z,99158.00
2022-11-16T14:42:01.634Z,99163.56
2022-11-16T14:44:33.288Z,99165.22
2022-11-16T14:47:03.531Z,99162.94
2022-11-16T14:49:34.826Z,99158.03
2022-11-16T14:52:04.555Z,99162.94
2022-11-16T14:54:40.002Z,99161.75
2022-11-16T14:57:13.957Z,99165.63
2022-11-16T14:59:41.623Z,99165.84
2022-11-16T15:02:20.168Z,99163.16
2022-11-16T15:04:49.087Z,99158.47
2022-11-16T15:07:18.494Z,99161.34
2022-11-16T15:09:51.385Z,99153.13
2022-11-16T15:12:39.161Z,99163.81
2022-11-16T15:15:14.325Z,99153.16
2022-11-16T15:17:44.207Z,99150.22
2022-11-16T15:20:20.872Z,99148.56
2022-11-16T15:22:51.591Z,99145.28
2022-11-16T15:25:30.558Z,99144.91
2022-11-16T15:28:00.457Z,99147.56
2022-11-16T15:30:30.960Z,99142.81
2022-11-16T15:32:58.624Z,99137.88
2022-11-16T15:35:30.785Z,99145.06
2022-11-16T15:38:03.497Z,99140.16
2022-11-16T15:40:33.981Z,99138.50
2022-11-16T15:43:05.043Z,99140.53
2022-11-16T15:45:33.685Z,99132.53
2022-11-16T15:48:04.851Z,99134.59
2022-11-16T15:50:32.720Z,99132.94
2022-11-16T15:53:00.372Z,99135.41
2022-11-16T15:55:34.814Z,99120.63
2022-11-16T15:58:06.180Z,99116.31
2022-11-16T16:00:36.647Z,99112.81
2022-11-16T16:03:08.637Z,99116.69
2022-11-16T16:05:39.269Z,99121.63
2022-11-16T16:08:24.697Z,99116.88
2022-11-16T16:11:04.851Z,99105.41
2022-11-16T16:13:35.813Z,99119.31
2022-11-16T16:16:29.739Z,99127.69
2022-11-16T16:19:05.097Z,99134.44
2022-11-16T16:21:47.478Z,99138.34
2022-11-16T16:24:41.116Z,99126.63
2022-11-16T16:27:16.054Z,99124.78
2022-11-16T16:29:43.782Z,99124.59
2022-11-16T16:32:21.943Z,99121.28
2022-11-16T16:34:50.265Z,99119.66
2022-11-16T16:37:17.912Z,99112.28
2022-11-16T16:39:45.602Z,99110.19
2022-11-16T16:42:16.304Z,99104.06
2022-11-16T16:44:45.520Z,99102.81
2022-11-16T16:47:13.796Z,99107.50
2022-11-16T16:49:41.782Z,99100.78
2022-11-16T16:52:12.799Z,99100.59
2022-11-16T16:54:40.706Z,99096.69
2022-11-16T16:57:17.082Z,99093.25
2022-11-16T16:59:48.036Z,99091.81
2022-11-16T17:02:16.086Z,99092.44
2022-11-16T17:04:46.452Z,99095.72
2022-11-16T17:07:14.160Z,99091.44
2022-11-16T17:09:42.210Z,99089.59
2022-11-16T17:12:10.798Z,99082.25
2022-11-16T17:14:39.789Z,99083.44
2022-11-16T17:17:07.460Z,99074.25
2022-11-16T17:19:35.091Z,99076.28
2022-11-16T17:22:02.770Z,99074.63
2022-11-16T17:24:30.628Z,99067.28
2022-11-16T17:26:58.283Z,99065.00
2022-11-16T17:29:25.895Z,99068.28
2022-11-16T17:31:54.964Z,99066.25
2022-11-16T17:34:22.610Z,99060.31
2022-11-16T17:36:50.344Z,99057.44
2022-11-16T17:39:19.091Z,99049.44
2022-11-16T17:41:46.733Z,99055.38
2022-11-16T17:44:20.144Z,99048.81
2022-11-16T17:46:49.149Z,99043.69
2022-11-16T17:49:18.152Z,99044.13
2022-11-16T17:51:45.764Z,99038.19
2022-11-16T17:54:13.385Z,99038.19
2022-11-16T17:56:41.018Z,99033.25
2022-11-16T17:59:08.681Z,99032.41
2022-11-16T18:01:36.700Z,99024.25
2022-11-16T18:04:04.648Z,99027.09
2022-11-16T18:06:35.078Z,99034.06
2022-11-16T18:09:02.945Z,99031.22
2022-11-16T18:11:30.737Z,99029.16
2022-11-16T18:14:00.522Z,99027.53
2022-11-16T18:16:31.590Z,99028.34
2022-11-16T18:19:01.058Z,99023.84
2022-11-16T18:21:29.244Z,99025.69
2022-11-16T18:24:02.985Z,99011.56
2022-11-16T18:26:30.742Z,99016.88
2022-11-16T18:28:58.386Z,99017.25
2022-11-16T18:31:26.345Z,99017.91
2022-11-16T18:33:54.204Z,99016.25
2022-11-16T18:36:23.022Z,99008.66
2022-11-16T18:38:50.887Z,99014.41
2022-11-16T18:41:21.808Z,99016.25
2022-11-16T18:43:51.412Z,99011.09
2022-11-16T18:46:19.602Z,99002.50
2022-11-16T18:48:47.634Z,98997.59
2022-11-16T18:51:16.623Z,98999.00
2022-11-16T18:53:44.391Z,98999.81
2022-11-16T18:56:12.422Z,98999.81
2022-11-16T18:58:50.907Z,98990.59
2022-11-16T19:01:21.754Z,98993.06
2022-11-16T19:03:49.595Z,98995.91
2022-11-16T19:06:17.987Z,98995.50
2022-11-16T19:08:52.106Z,98993.66
2022-11-16T19:11:21.673Z,98992.66
2022-11-16T19:13:53.971Z,98990.56
2022-11-16T19:16:22.548Z,98989.91
2022-11-16T19:18:50.321Z,98983.75
2022-11-16T19:21:19.325Z,98984.78
2022-11-16T19:23:48.655Z,98978.44
2022-11-16T19:26:18.497Z,98971.25
2022-11-16T19:28:47.995Z,98970.88
2022-11-16T19:31:19.420Z,98978.22
2022-11-16T19:33:47.697Z,98981.53
2022-11-16T19:36:17.057Z,98981.53
2022-11-16T19:38:46.386Z,98985.19
2022-11-16T19:41:15.931Z,98987.22
2022-11-16T19:43:44.070Z,98981.53
2022-11-16T19:46:16.440Z,98978.44
2022-11-16T19:48:46.882Z,98971.72
2022-11-16T19:51:17.010Z,98970.06
2022-11-16T19:53:45.437Z,98973.59
2022-11-16T19:56:15.434Z,98977.41
2022-11-16T19:58:43.636Z,98976.19
2022-11-16T20:01:13.363Z,98975.13
2022-11-16T20:03:42.208Z,98967.97
2022-11-16T20:06:13.114Z,98954.03
2022-11-16T20:08:42.370Z,98956.09
2022-11-16T20:11:13.973Z,98956.09
2022-11-16T20:13:41.993Z,98949.16
2022-11-16T20:16:10.892Z,98950.56
2022-11-16T20:18:38.761Z,98949.91
2022-11-16T20:21:07.259Z,98956.88
2022-11-16T20:23:37.532Z,98950.91
2022-11-16T20:26:06.488Z,98950.72
2022-11-16T20:28:37.620Z,98954.00
2022-11-16T20:31:08.651Z,98954.00
2022-11-16T20:33:36.746Z,98937.88
2022-11-16T20:36:06.790Z,98941.94
2022-11-16T20:38:35.922Z,98942.16
2022-11-16T20:41:12.028Z,98930.72
2022-11-16T20:43:40.304Z,98920.44
2022-11-16T20:46:08.376Z,98921.03
2022-11-16T20:48:36.529Z,98910.25
2022-11-16T20:51:04.498Z,98918.59
2022-11-16T20:53:32.788Z,98911.22
2022-11-16T20:56:03.029Z,98917.53
2022-11-16T20:58:31.108Z,98914.28
2022-11-16T21:01:01.162Z,98912.22
2022-11-16T21:03:28.947Z,98918.16
2022-11-16T21:05:56.751Z,98910.81
2022-11-16T21:08:27.080Z,98908.75
2022-11-16T21:10:54.910Z,98906.09
2022-11-16T21:13:42.358Z,98910.56
2022-11-16T21:16:12.360Z,98911.00
2022-11-16T21:18:40.638Z,98913.84
2022-11-16T21:21:11.063Z,98896.69
2022-11-16T21:23:40.939Z,98894.22
2022-11-16T21:26:12.729Z,98892.41
2022-11-16T21:28:44.558Z,98886.06
2022-11-16T21:31:14.048Z,98883.00
2022-11-16T21:33:41.749Z,98882.38
2022-11-16T21:36:12.474Z,98878.91
2022-11-16T21:38:40.525Z,98875.81
2022-11-16T21:41:08.784Z,98871.31
2022-11-16T21:43:37.234Z,98873.78
2022-11-16T21:46:08.338Z,98874.63
2022-11-16T21:48:36.940Z,98877.44
2022-11-16T21:51:06.276Z,98871.31
2022-11-16T21:53:34.687Z,98866.44
2022-11-16T21:56:02.675Z,98867.25
2022-11-16T21:58:30.263Z,98861.13
2022-11-16T22:00:59.383Z,98857.06
2022-11-16T22:03:30.194Z,98850.91
2022-11-16T22:06:17.538Z,98856.44
2022-11-16T22:08:45.237Z,98847.63
2022-11-16T22:11:13.604Z,98850.03
2022-11-16T22:13:41.679Z,98859.88
2022-11-16T22:16:10.939Z,98849.03
2022-11-16T22:18:40.553Z,98851.69
2022-11-16T22:21:08.733Z,98850.47
2022-11-16T22:23:37.449Z,98845.97
2022-11-16T22:26:07.554Z,98841.69
2022-11-16T22:28:36.194Z,98829.41
2022-11-16T22:31:05.315Z,98834.72
2022-11-16T22:33:34.576Z,98828.38
2022-11-16T22:36:04.139Z,98833.06
2022-11-16T22:38:32.401Z,98828.75
2022-11-16T22:40:59.999Z,98819.75
2022-11-16T22:43:29.074Z,98818.13
2022-11-16T22:46:00.640Z,98818.13
2022-11-16T22:48:32.479Z,98812.19
2022-11-16T22:51:06.844Z,98810.78
2022-11-16T22:53:35.303Z,98809.94
2022-11-16T22:56:08.108Z,98805.47
2022-11-16T22:58:36.120Z,98805.03
2022-11-16T23:01:04.150Z,98796.03
2022-11-16T23:03:32.404Z,98787.44
2022-11-16T23:06:00.604Z,98787.66
2022-11-16T23:08:29.647Z,98787.44
2022-11-16T23:11:19.134Z,98775.19
2022-11-16T23:14:04.414Z,98765.53
2022-11-16T23:16:32.104Z,98771.06
2022-11-16T23:19:00.192Z,98776.59
2022-11-16T23:21:45.527Z,98774.97
2022-11-16T23:24:33.805Z,98781.69
2022-11-16T23:27:21.233Z,98783.75
2022-11-16T23:29:49.090Z,98774.31
2022-11-16T23:32:16.754Z,98767.38
2022-11-16T23:34:44.408Z,98766.16
2022-11-16T23:37:11.992Z,98760.44
2022-11-16T23:39:41.049Z,98752.47
2022-11-16T23:42:26.659Z,98751.66
2022-11-16T23:44:54.415Z,98734.66
2022-11-16T23:47:22.277Z,98730.16
2022-11-16T23:49:50.221Z,98724.44
2022-11-16T23:52:17.885Z,98723.63
2022-11-16T23:54:46.948Z,98714.59
2022-11-16T23:57:14.639Z,98718.25
2022-11-16T23:59:42.299Z,98702.53
